sensor_id;sensor_type;location;lat;lon;timestamp;temperature;humidity
21039;DHT22;10678;51.002;4.786;2022-08-25T00:01:44;23.20;99.90
21039;DHT22;10678;51.002;4.786;2022-08-25T00:04:13;23.20;99.90
21039;DHT22;10678;51.002;4.786;2022-08-25T00:06:40;23.20;99.90
21039;DHT22;10678;51.002;4.786;2022-08-25T00:09:08;23.20;99.90
21039;DHT22;10678;51.002;4.786;2022-08-25T00:11:36;23.10;99.90
21039;DHT22;10678;51.002;4.786;2022-08-25T00:14:05;23.00;99.90
21039;DHT22;10678;51.002;4.786;2022-08-25T00:16:31;23.00;99.90
21039;DHT22;10678;51.002;4.786;2022-08-25T00:19:01;22.90;99.90
21039;DHT22;10678;51.002;4.786;2022-08-25T00:21:28;22.80;99.90
21039;DHT22;10678;51.002;4.786;2022-08-25T00:23:56;22.90;99.90
21039;DHT22;10678;51.002;4.786;2022-08-25T00:26:22;22.80;99.90
21039;DHT22;10678;51.002;4.786;2022-08-25T00:28:47;22.80;99.90
21039;DHT22;10678;51.002;4.786;2022-08-25T00:31:16;22.70;99.90
21039;DHT22;10678;51.002;4.786;2022-08-25T00:33:44;22.70;99.90
21039;DHT22;10678;51.002;4.786;2022-08-25T00:36:09;22.70;99.90
21039;DHT22;10678;51.002;4.786;2022-08-25T00:38:40;22.60;99.90
21039;DHT22;10678;51.002;4.786;2022-08-25T00:41:07;22.60;99.90
21039;DHT22;10678;51.002;4.786;2022-08-25T00:46:23;22.60;99.90
21039;DHT22;10678;51.002;4.786;2022-08-25T00:48:54;22.60;99.90
21039;DHT22;10678;51.002;4.786;2022-08-25T00:51:35;22.50;99.90
21039;DHT22;10678;51.002;4.786;2022-08-25T00:54:03;22.50;99.90
21039;DHT22;10678;51.002;4.786;2022-08-25T00:56:29;22.40;99.90
21039;DHT22;10678;51.002;4.786;2022-08-25T00:58:57;22.40;99.90
21039;DHT22;10678;51.002;4.786;2022-08-25T01:01:25;22.40;99.90
21039;DHT22;10678;51.002;4.786;2022-08-25T01:03:51;22.40;99.90
21039;DHT22;10678;51.002;4.786;2022-08-25T01:06:17;22.20;99.90
21039;DHT22;10678;51.002;4.786;2022-08-25T01:08:43;22.30;99.90
21039;DHT22;10678;51.002;4.786;2022-08-25T01:11:10;22.30;99.90
21039;DHT22;10678;51.002;4.786;2022-08-25T01:13:47;22.20;99.90
21039;DHT22;10678;51.002;4.786;2022-08-25T01:16:15;22.10;99.90
21039;DHT22;10678;51.002;4.786;2022-08-25T01:18:49;22.20;99.90
21039;DHT22;10678;51.002;4.786;2022-08-25T01:21:16;22.10;99.90
21039;DHT22;10678;51.002;4.786;2022-08-25T01:23:42;22.10;99.90
21039;DHT22;10678;51.002;4.786;2022-08-25T01:26:46;22.10;99.90
21039;DHT22;10678;51.002;4.786;2022-08-25T01:29:07;22.00;99.90
21039;DHT22;10678;51.002;4.786;2022-08-25T01:31:47;21.90;99.90
21039;DHT22;10678;51.002;4.786;2022-08-25T01:34:14;21.90;99.90
21039;DHT22;10678;51.002;4.786;2022-08-25T01:36:42;21.80;99.90
21039;DHT22;10678;51.002;4.786;2022-08-25T01:39:08;21.80;99.90
21039;DHT22;10678;51.002;4.786;2022-08-25T01:44:00;21.80;99.90
21039;DHT22;10678;51.002;4.786;2022-08-25T01:46:26;21.80;99.90
21039;DHT22;10678;51.002;4.786;2022-08-25T01:48:52;21.80;99.90
21039;DHT22;10678;51.002;4.786;2022-08-25T01:51:20;21.70;99.90
21039;DHT22;10678;51.002;4.786;2022-08-25T01:53:48;21.70;99.90
21039;DHT22;10678;51.002;4.786;2022-08-25T01:56:15;21.60;99.90
21039;DHT22;10678;51.002;4.786;2022-08-25T01:58:44;21.60;99.90
21039;DHT22;10678;51.002;4.786;2022-08-25T02:01:13;21.50;99.90
21039;DHT22;10678;51.002;4.786;2022-08-25T02:03:41;21.40;99.90
21039;DHT22;10678;51.002;4.786;2022-08-25T02:06:07;21.40;99.90
21039;DHT22;10678;51.002;4.786;2022-08-25T02:08:35;21.40;99.90
21039;DHT22;10678;51.002;4.786;2022-08-25T02:11:01;21.40;99.90
21039;DHT22;10678;51.002;4.786;2022-08-25T02:13:27;21.40;99.90
21039;DHT22;10678;51.002;4.786;2022-08-25T02:15:54;21.30;99.90
21039;DHT22;10678;51.002;4.786;2022-08-25T02:18:20;21.30;99.90
21039;DHT22;10678;51.002;4.786;2022-08-25T02:20:46;21.30;99.90
21039;DHT22;10678;51.002;4.786;2022-08-25T02:23:12;21.20;99.90
21039;DHT22;10678;51.002;4.786;2022-08-25T02:25:39;21.30;99.90
21039;DHT22;10678;51.002;4.786;2022-08-25T02:28:06;21.30;99.90
21039;DHT22;10678;51.002;4.786;2022-08-25T02:30:33;21.20;99.90
21039;DHT22;10678;51.002;4.786;2022-08-25T02:32:59;21.20;99.90
21039;DHT22;10678;51.002;4.786;2022-08-25T02:35:25;21.20;99.90
21039;DHT22;10678;51.002;4.786;2022-08-25T02:37:52;21.20;99.90
21039;DHT22;10678;51.002;4.786;2022-08-25T02:40:18;21.20;99.90
21039;DHT22;10678;51.002;4.786;2022-08-25T02:42:49;21.20;99.90
21039;DHT22;10678;51.002;4.786;2022-08-25T02:45:15;21.20;99.90
21039;DHT22;10678;51.002;4.786;2022-08-25T02:47:43;21.20;99.90
21039;DHT22;10678;51.002;4.786;2022-08-25T02:50:09;21.00;99.90
21039;DHT22;10678;51.002;4.786;2022-08-25T02:52:35;21.00;99.90
21039;DHT22;10678;51.002;4.786;2022-08-25T02:55:02;21.00;99.90
21039;DHT22;10678;51.002;4.786;2022-08-25T02:57:29;21.00;99.90
21039;DHT22;10678;51.002;4.786;2022-08-25T02:59:56;20.90;99.90
21039;DHT22;10678;51.002;4.786;2022-08-25T03:02:22;20.90;99.90
21039;DHT22;10678;51.002;4.786;2022-08-25T03:04:49;21.00;99.90
21039;DHT22;10678;51.002;4.786;2022-08-25T03:07:16;20.90;99.90
21039;DHT22;10678;51.002;4.786;2022-08-25T03:09:42;20.90;99.90
21039;DHT22;10678;51.002;4.786;2022-08-25T03:12:09;20.90;99.90
21039;DHT22;10678;51.002;4.786;2022-08-25T03:14:35;20.90;99.90
21039;DHT22;10678;51.002;4.786;2022-08-25T03:17:01;20.90;99.90
21039;DHT22;10678;51.002;4.786;2022-08-25T03:19:26;20.80;99.90
21039;DHT22;10678;51.002;4.786;2022-08-25T03:21:52;20.90;99.90
21039;DHT22;10678;51.002;4.786;2022-08-25T03:24:21;20.90;99.90
21039;DHT22;10678;51.002;4.786;2022-08-25T03:26:47;20.80;99.90
21039;DHT22;10678;51.002;4.786;2022-08-25T03:29:19;20.70;99.90
21039;DHT22;10678;51.002;4.786;2022-08-25T03:31:45;20.70;99.90
21039;DHT22;10678;51.002;4.786;2022-08-25T03:34:13;20.60;99.90
21039;DHT22;10678;51.002;4.786;2022-08-25T03:36:41;20.60;99.90
21039;DHT22;10678;51.002;4.786;2022-08-25T03:39:07;20.60;99.90
21039;DHT22;10678;51.002;4.786;2022-08-25T03:41:33;20.70;99.90
21039;DHT22;10678;51.002;4.786;2022-08-25T03:43:59;20.70;99.90
21039;DHT22;10678;51.002;4.786;2022-08-25T03:46:31;20.60;99.90
21039;DHT22;10678;51.002;4.786;2022-08-25T03:48:59;20.50;99.90
21039;DHT22;10678;51.002;4.786;2022-08-25T03:51:31;20.50;99.90
21039;DHT22;10678;51.002;4.786;2022-08-25T03:53:57;20.50;99.90
21039;DHT22;10678;51.002;4.786;2022-08-25T03:56:23;20.50;99.90
21039;DHT22;10678;51.002;4.786;2022-08-25T03:58:49;20.50;99.90
21039;DHT22;10678;51.002;4.786;2022-08-25T04:01:16;20.50;99.90
21039;DHT22;10678;51.002;4.786;2022-08-25T04:03:41;20.50;99.90
21039;DHT22;10678;51.002;4.786;2022-08-25T04:06:08;20.50;99.90
21039;DHT22;10678;51.002;4.786;2022-08-25T04:08:34;20.50;99.90
21039;DHT22;10678;51.002;4.786;2022-08-25T04:11:08;20.50;99.90
21039;DHT22;10678;51.002;4.786;2022-08-25T04:13:34;20.50;99.90
21039;DHT22;10678;51.002;4.786;2022-08-25T04:16:02;20.40;99.90
21039;DHT22;10678;51.002;4.786;2022-08-25T04:18:27;20.40;99.90
21039;DHT22;10678;51.002;4.786;2022-08-25T04:21:05;20.40;99.90
21039;DHT22;10678;51.002;4.786;2022-08-25T04:23:33;20.40;99.90
21039;DHT22;10678;51.002;4.786;2022-08-25T04:25:58;20.40;99.90
21039;DHT22;10678;51.002;4.786;2022-08-25T04:28:24;20.40;99.90
21039;DHT22;10678;51.002;4.786;2022-08-25T04:30:50;20.40;99.90
21039;DHT22;10678;51.002;4.786;2022-08-25T04:33:15;20.40;99.90
21039;DHT22;10678;51.002;4.786;2022-08-25T04:35:46;20.40;99.90
21039;DHT22;10678;51.002;4.786;2022-08-25T04:38:12;20.40;99.90
21039;DHT22;10678;51.002;4.786;2022-08-25T04:40:37;20.40;99.90
21039;DHT22;10678;51.002;4.786;2022-08-25T04:43:03;20.40;99.90
21039;DHT22;10678;51.002;4.786;2022-08-25T04:45:28;20.40;99.90
21039;DHT22;10678;51.002;4.786;2022-08-25T04:47:54;20.40;99.90
21039;DHT22;10678;51.002;4.786;2022-08-25T04:50:24;20.40;99.90
21039;DHT22;10678;51.002;4.786;2022-08-25T04:52:49;20.30;99.90
21039;DHT22;10678;51.002;4.786;2022-08-25T04:55:15;20.40;99.90
21039;DHT22;10678;51.002;4.786;2022-08-25T04:57:42;20.40;99.90
21039;DHT22;10678;51.002;4.786;2022-08-25T05:00:08;20.40;99.90
21039;DHT22;10678;51.002;4.786;2022-08-25T05:02:34;20.40;99.90
21039;DHT22;10678;51.002;4.786;2022-08-25T05:05:00;20.30;99.90
21039;DHT22;10678;51.002;4.786;2022-08-25T05:07:27;20.40;99.90
21039;DHT22;10678;51.002;4.786;2022-08-25T05:09:53;20.40;99.90
21039;DHT22;10678;51.002;4.786;2022-08-25T05:12:19;20.40;99.90
21039;DHT22;10678;51.002;4.786;2022-08-25T05:14:45;20.40;99.90
21039;DHT22;10678;51.002;4.786;2022-08-25T05:17:10;20.40;99.90
21039;DHT22;10678;51.002;4.786;2022-08-25T05:19:36;20.40;99.90
21039;DHT22;10678;51.002;4.786;2022-08-25T05:22:02;20.40;99.90
21039;DHT22;10678;51.002;4.786;2022-08-25T05:24:27;20.40;99.90
21039;DHT22;10678;51.002;4.786;2022-08-25T05:26:54;20.40;99.90
21039;DHT22;10678;51.002;4.786;2022-08-25T05:29:20;20.40;99.90
21039;DHT22;10678;51.002;4.786;2022-08-25T05:31:45;20.40;99.90
21039;DHT22;10678;51.002;4.786;2022-08-25T05:34:11;20.40;99.90
21039;DHT22;10678;51.002;4.786;2022-08-25T05:36:37;20.40;99.90
21039;DHT22;10678;51.002;4.786;2022-08-25T05:39:07;20.40;99.90
21039;DHT22;10678;51.002;4.786;2022-08-25T05:41:33;20.40;99.90
21039;DHT22;10678;51.002;4.786;2022-08-25T05:43:58;20.40;99.90
21039;DHT22;10678;51.002;4.786;2022-08-25T05:46:24;20.50;99.90
21039;DHT22;10678;51.002;4.786;2022-08-25T05:48:51;20.60;99.90
21039;DHT22;10678;51.002;4.786;2022-08-25T05:51:17;20.60;99.90
21039;DHT22;10678;51.002;4.786;2022-08-25T05:53:47;20.70;99.90
21039;DHT22;10678;51.002;4.786;2022-08-25T05:56:13;20.70;99.90
21039;DHT22;10678;51.002;4.786;2022-08-25T05:58:40;20.70;99.90
21039;DHT22;10678;51.002;4.786;2022-08-25T06:01:06;20.80;99.90
21039;DHT22;10678;51.002;4.786;2022-08-25T06:03:50;20.90;99.90
21039;DHT22;10678;51.002;4.786;2022-08-25T06:06:18;21.10;99.90
21039;DHT22;10678;51.002;4.786;2022-08-25T06:08:44;21.10;99.90
21039;DHT22;10678;51.002;4.786;2022-08-25T06:11:11;21.20;99.90
21039;DHT22;10678;51.002;4.786;2022-08-25T06:13:38;21.30;99.90
21039;DHT22;10678;51.002;4.786;2022-08-25T06:16:04;21.40;99.90
21039;DHT22;10678;51.002;4.786;2022-08-25T06:18:30;21.50;99.90
21039;DHT22;10678;51.002;4.786;2022-08-25T06:20:55;21.70;99.90
21039;DHT22;10678;51.002;4.786;2022-08-25T06:23:21;21.80;99.90
21039;DHT22;10678;51.002;4.786;2022-08-25T06:25:53;21.90;99.90
21039;DHT22;10678;51.002;4.786;2022-08-25T06:28:20;22.10;99.90
21039;DHT22;10678;51.002;4.786;2022-08-25T06:30:47;22.20;99.90
21039;DHT22;10678;51.002;4.786;2022-08-25T06:33:13;22.40;99.90
21039;DHT22;10678;51.002;4.786;2022-08-25T06:35:43;22.60;99.90
21039;DHT22;10678;51.002;4.786;2022-08-25T06:38:09;22.80;99.90
21039;DHT22;10678;51.002;4.786;2022-08-25T06:40:35;23.00;99.90
21039;DHT22;10678;51.002;4.786;2022-08-25T06:43:00;23.20;99.90
21039;DHT22;10678;51.002;4.786;2022-08-25T06:45:26;23.40;99.90
21039;DHT22;10678;51.002;4.786;2022-08-25T06:47:52;23.60;99.90
21039;DHT22;10678;51.002;4.786;2022-08-25T06:50:19;23.80;99.90
21039;DHT22;10678;51.002;4.786;2022-08-25T06:52:44;24.00;99.90
21039;DHT22;10678;51.002;4.786;2022-08-25T06:55:10;24.10;99.90
21039;DHT22;10678;51.002;4.786;2022-08-25T06:57:36;24.20;99.90
21039;DHT22;10678;51.002;4.786;2022-08-25T07:00:05;24.20;99.90
21039;DHT22;10678;51.002;4.786;2022-08-25T07:02:32;24.30;99.90
21039;DHT22;10678;51.002;4.786;2022-08-25T07:04:57;24.30;99.90
21039;DHT22;10678;51.002;4.786;2022-08-25T07:07:23;24.40;99.90
21039;DHT22;10678;51.002;4.786;2022-08-25T07:09:49;24.50;99.90
21039;DHT22;10678;51.002;4.786;2022-08-25T07:12:14;24.50;99.90
21039;DHT22;10678;51.002;4.786;2022-08-25T07:14:40;24.60;99.90
21039;DHT22;10678;51.002;4.786;2022-08-25T07:17:05;24.60;99.90
21039;DHT22;10678;51.002;4.786;2022-08-25T07:19:31;24.70;99.90
21039;DHT22;10678;51.002;4.786;2022-08-25T07:21:57;24.70;99.90
21039;DHT22;10678;51.002;4.786;2022-08-25T07:24:23;24.80;99.90
21039;DHT22;10678;51.002;4.786;2022-08-25T07:26:49;24.90;99.90
21039;DHT22;10678;51.002;4.786;2022-08-25T07:29:25;25.00;99.90
21039;DHT22;10678;51.002;4.786;2022-08-25T07:31:52;25.20;99.90
21039;DHT22;10678;51.002;4.786;2022-08-25T07:34:17;25.40;99.90
21039;DHT22;10678;51.002;4.786;2022-08-25T07:37:02;25.70;99.90
21039;DHT22;10678;51.002;4.786;2022-08-25T07:39:29;26.20;99.90
21039;DHT22;10678;51.002;4.786;2022-08-25T07:41:56;26.90;99.90
21039;DHT22;10678;51.002;4.786;2022-08-25T07:44:22;27.70;99.90
21039;DHT22;10678;51.002;4.786;2022-08-25T07:46:49;28.30;99.90
21039;DHT22;10678;51.002;4.786;2022-08-25T07:49:15;29.00;99.90
21039;DHT22;10678;51.002;4.786;2022-08-25T07:51:41;29.40;99.90
21039;DHT22;10678;51.002;4.786;2022-08-25T07:54:07;29.30;99.90
21039;DHT22;10678;51.002;4.786;2022-08-25T07:56:32;29.20;99.90
21039;DHT22;10678;51.002;4.786;2022-08-25T07:58:58;29.00;99.90
21039;DHT22;10678;51.002;4.786;2022-08-25T08:01:24;29.10;99.90
21039;DHT22;10678;51.002;4.786;2022-08-25T08:03:50;29.40;99.90
21039;DHT22;10678;51.002;4.786;2022-08-25T08:06:21;29.90;99.90
21039;DHT22;10678;51.002;4.786;2022-08-25T08:08:48;30.40;99.90
21039;DHT22;10678;51.002;4.786;2022-08-25T08:11:22;31.20;99.90
21039;DHT22;10678;51.002;4.786;2022-08-25T08:13:51;32.00;99.90
21039;DHT22;10678;51.002;4.786;2022-08-25T08:16:18;32.80;99.90
21039;DHT22;10678;51.002;4.786;2022-08-25T08:18:45;33.40;99.90
21039;DHT22;10678;51.002;4.786;2022-08-25T08:21:23;33.90;99.90
21039;DHT22;10678;51.002;4.786;2022-08-25T08:23:50;34.50;99.90
21039;DHT22;10678;51.002;4.786;2022-08-25T08:26:17;34.80;90.70
21039;DHT22;10678;51.002;4.786;2022-08-25T08:28:42;34.80;97.40
21039;DHT22;10678;51.002;4.786;2022-08-25T08:31:08;35.50;94.50
21039;DHT22;10678;51.002;4.786;2022-08-25T08:33:34;36.10;91.60
21039;DHT22;10678;51.002;4.786;2022-08-25T08:36:03;36.60;90.90
21039;DHT22;10678;51.002;4.786;2022-08-25T08:38:29;36.80;80.50
21039;DHT22;10678;51.002;4.786;2022-08-25T08:50:41;38.50;79.00
21039;DHT22;10678;51.002;4.786;2022-08-25T08:53:15;39.20;76.80
21039;DHT22;10678;51.002;4.786;2022-08-25T08:55:47;39.90;74.60
21039;DHT22;10678;51.002;4.786;2022-08-25T08:58:26;39.90;67.50
21039;DHT22;10678;51.002;4.786;2022-08-25T09:00:55;39.60;69.20
21039;DHT22;10678;51.002;4.786;2022-08-25T09:03:45;39.60;69.70
21039;DHT22;10678;51.002;4.786;2022-08-25T09:06:19;39.80;67.30
21039;DHT22;10678;51.002;4.786;2022-08-25T09:08:46;40.10;66.50
21039;DHT22;10678;51.002;4.786;2022-08-25T09:16:42;39.20;63.10
21039;DHT22;10678;51.002;4.786;2022-08-25T09:25:51;39.60;66.40
21039;DHT22;10678;51.002;4.786;2022-08-25T09:28:29;40.60;65.80
21039;DHT22;10678;51.002;4.786;2022-08-25T09:30:58;41.70;62.40
21039;DHT22;10678;51.002;4.786;2022-08-25T09:33:27;42.70;60.50
21039;DHT22;10678;51.002;4.786;2022-08-25T09:35:54;43.30;56.70
21039;DHT22;10678;51.002;4.786;2022-08-25T09:38:21;43.80;56.60
21039;DHT22;10678;51.002;4.786;2022-08-25T09:40:50;44.10;51.30
21039;DHT22;10678;51.002;4.786;2022-08-25T09:43:35;44.30;56.40
21039;DHT22;10678;51.002;4.786;2022-08-25T09:46:14;45.10;55.10
21039;DHT22;10678;51.002;4.786;2022-08-25T09:48:55;45.80;53.00
21039;DHT22;10678;51.002;4.786;2022-08-25T09:51:32;46.40;51.10
21039;DHT22;10678;51.002;4.786;2022-08-25T09:54:14;46.60;48.90
21039;DHT22;10678;51.002;4.786;2022-08-25T09:59:20;47.30;49.40
21039;DHT22;10678;51.002;4.786;2022-08-25T10:01:56;47.50;46.70
21039;DHT22;10678;51.002;4.786;2022-08-25T10:04:33;47.70;46.90
21039;DHT22;10678;51.002;4.786;2022-08-25T10:07:03;48.30;46.80
21039;DHT22;10678;51.002;4.786;2022-08-25T10:11:55;48.30;43.50
21039;DHT22;10678;51.002;4.786;2022-08-25T10:14:31;49.00;44.50
21039;DHT22;10678;51.002;4.786;2022-08-25T10:17:22;49.30;43.20
21039;DHT22;10678;51.002;4.786;2022-08-25T10:20:12;49.60;38.60
21039;DHT22;10678;51.002;4.786;2022-08-25T10:22:41;50.10;40.40
21039;DHT22;10678;51.002;4.786;2022-08-25T10:25:09;50.70;39.60
21039;DHT22;10678;51.002;4.786;2022-08-25T10:38:46;52.30;37.30
21039;DHT22;10678;51.002;4.786;2022-08-25T10:50:37;52.40;35.60
21039;DHT22;10678;51.002;4.786;2022-08-25T10:56:19;52.30;34.50
21039;DHT22;10678;51.002;4.786;2022-08-25T10:59:05;51.90;32.00
21039;DHT22;10678;51.002;4.786;2022-08-25T11:07:08;52.30;33.30
21039;DHT22;10678;51.002;4.786;2022-08-25T11:09:39;51.40;34.70
21039;DHT22;10678;51.002;4.786;2022-08-25T11:12:16;50.40;35.70
21039;DHT22;10678;51.002;4.786;2022-08-25T11:14:45;49.10;36.60
21039;DHT22;10678;51.002;4.786;2022-08-25T11:17:15;47.90;38.80
21039;DHT22;10678;51.002;4.786;2022-08-25T11:19:44;46.60;38.30
21039;DHT22;10678;51.002;4.786;2022-08-25T11:28:02;43.90;41.80
21039;DHT22;10678;51.002;4.786;2022-08-25T11:30:30;44.30;44.40
21039;DHT22;10678;51.002;4.786;2022-08-25T11:32:56;45.50;43.40
21039;DHT22;10678;51.002;4.786;2022-08-25T11:35:42;46.70;40.10
21039;DHT22;10678;51.002;4.786;2022-08-25T11:40:46;48.40;37.50
21039;DHT22;10678;51.002;4.786;2022-08-25T11:49:43;49.90;34.00
21039;DHT22;10678;51.002;4.786;2022-08-25T11:57:39;50.00;33.90
21039;DHT22;10678;51.002;4.786;2022-08-25T12:02:45;50.60;34.40
21039;DHT22;10678;51.002;4.786;2022-08-25T12:10:17;52.50;31.80
21039;DHT22;10678;51.002;4.786;2022-08-25T12:31:19;53.80;30.70
21039;DHT22;10678;51.002;4.786;2022-08-25T12:34:04;53.50;29.70
21039;DHT22;10678;51.002;4.786;2022-08-25T12:36:33;52.80;28.40
21039;DHT22;10678;51.002;4.786;2022-08-25T12:39:18;52.60;30.70
21039;DHT22;10678;51.002;4.786;2022-08-25T12:47:42;51.90;32.20
21039;DHT22;10678;51.002;4.786;2022-08-25T12:50:40;51.90;31.70
21039;DHT22;10678;51.002;4.786;2022-08-25T12:53:30;51.70;31.80
21039;DHT22;10678;51.002;4.786;2022-08-25T13:12:21;52.40;31.10
21039;DHT22;10678;51.002;4.786;2022-08-25T13:14:54;52.50;29.40
21039;DHT22;10678;51.002;4.786;2022-08-25T13:17:28;52.60;31.60
21039;DHT22;10678;51.002;4.786;2022-08-25T13:20:30;52.60;30.60
21039;DHT22;10678;51.002;4.786;2022-08-25T13:22:58;52.10;27.70
21039;DHT22;10678;51.002;4.786;2022-08-25T13:25:27;51.90;29.90
21039;DHT22;10678;51.002;4.786;2022-08-25T13:27:59;51.70;31.00
21039;DHT22;10678;51.002;4.786;2022-08-25T13:30:32;51.40;30.00
21039;DHT22;10678;51.002;4.786;2022-08-25T13:32:58;49.90;30.90
21039;DHT22;10678;51.002;4.786;2022-08-25T13:35:27;47.80;31.30
21039;DHT22;10678;51.002;4.786;2022-08-25T13:37:54;46.10;33.40
21039;DHT22;10678;51.002;4.786;2022-08-25T13:40:36;44.60;36.10
21039;DHT22;10678;51.002;4.786;2022-08-25T13:43:05;43.30;36.60
21039;DHT22;10678;51.002;4.786;2022-08-25T13:45:39;42.40;38.70
21039;DHT22;10678;51.002;4.786;2022-08-25T13:48:06;42.00;40.50
21039;DHT22;10678;51.002;4.786;2022-08-25T13:50:33;42.40;38.80
21039;DHT22;10678;51.002;4.786;2022-08-25T13:53:21;42.90;40.50
21039;DHT22;10678;51.002;4.786;2022-08-25T13:55:51;43.50;40.20
21039;DHT22;10678;51.002;4.786;2022-08-25T13:58:27;43.60;39.30
21039;DHT22;10678;51.002;4.786;2022-08-25T14:08:33;42.00;37.80
21039;DHT22;10678;51.002;4.786;2022-08-25T14:13:33;41.00;40.40
21039;DHT22;10678;51.002;4.786;2022-08-25T14:16:21;40.40;39.10
21039;DHT22;10678;51.002;4.786;2022-08-25T14:18:55;40.20;40.90
21039;DHT22;10678;51.002;4.786;2022-08-25T14:21:27;39.80;41.80
21039;DHT22;10678;51.002;4.786;2022-08-25T14:23:54;39.70;43.00
21039;DHT22;10678;51.002;4.786;2022-08-25T14:26:21;39.40;42.40
21039;DHT22;10678;51.002;4.786;2022-08-25T14:28:46;39.20;41.30
21039;DHT22;10678;51.002;4.786;2022-08-25T14:31:28;38.70;42.10
21039;DHT22;10678;51.002;4.786;2022-08-25T14:36:19;38.40;42.10
21039;DHT22;10678;51.002;4.786;2022-08-25T14:38:45;38.40;42.20
21039;DHT22;10678;51.002;4.786;2022-08-25T14:41:11;38.10;42.50
21039;DHT22;10678;51.002;4.786;2022-08-25T14:43:36;37.90;43.80
21039;DHT22;10678;51.002;4.786;2022-08-25T14:46:08;37.50;43.10
21039;DHT22;10678;51.002;4.786;2022-08-25T14:48:40;37.30;43.40
21039;DHT22;10678;51.002;4.786;2022-08-25T14:51:06;37.00;42.30
21039;DHT22;10678;51.002;4.786;2022-08-25T14:53:33;36.90;44.10
21039;DHT22;10678;51.002;4.786;2022-08-25T14:55:59;36.50;42.80
21039;DHT22;10678;51.002;4.786;2022-08-25T14:58:26;36.40;45.80
21039;DHT22;10678;51.002;4.786;2022-08-25T15:00:53;36.30;46.90
21039;DHT22;10678;51.002;4.786;2022-08-25T15:03:27;36.20;45.70
21039;DHT22;10678;51.002;4.786;2022-08-25T15:05:53;36.00;46.40
21039;DHT22;10678;51.002;4.786;2022-08-25T15:08:19;35.60;45.50
21039;DHT22;10678;51.002;4.786;2022-08-25T15:11:03;35.50;46.70
21039;DHT22;10678;51.002;4.786;2022-08-25T15:13:29;35.30;48.20
21039;DHT22;10678;51.002;4.786;2022-08-25T15:15:55;35.20;49.00
21039;DHT22;10678;51.002;4.786;2022-08-25T15:18:21;35.10;50.30
21039;DHT22;10678;51.002;4.786;2022-08-25T15:20:47;35.10;50.20
21039;DHT22;10678;51.002;4.786;2022-08-25T15:23:13;35.10;51.00
21039;DHT22;10678;51.002;4.786;2022-08-25T15:25:40;35.00;51.90
21039;DHT22;10678;51.002;4.786;2022-08-25T15:28:07;34.90;51.70
21039;DHT22;10678;51.002;4.786;2022-08-25T15:30:34;34.70;52.80
21039;DHT22;10678;51.002;4.786;2022-08-25T15:33:00;34.80;53.40
21039;DHT22;10678;51.002;4.786;2022-08-25T15:35:25;34.70;54.30
21039;DHT22;10678;51.002;4.786;2022-08-25T15:37:51;34.60;54.60
21039;DHT22;10678;51.002;4.786;2022-08-25T15:40:17;34.70;54.40
21039;DHT22;10678;51.002;4.786;2022-08-25T15:42:42;34.80;53.80
21039;DHT22;10678;51.002;4.786;2022-08-25T15:45:09;34.70;52.10
21039;DHT22;10678;51.002;4.786;2022-08-25T15:47:34;34.70;53.50
21039;DHT22;10678;51.002;4.786;2022-08-25T15:50:16;34.80;53.40
21039;DHT22;10678;51.002;4.786;2022-08-25T15:52:43;34.70;54.40
21039;DHT22;10678;51.002;4.786;2022-08-25T15:55:09;34.60;53.70
21039;DHT22;10678;51.002;4.786;2022-08-25T15:57:36;34.50;53.10
21039;DHT22;10678;51.002;4.786;2022-08-25T16:00:06;34.30;53.90
21039;DHT22;10678;51.002;4.786;2022-08-25T16:02:35;34.20;53.70
21039;DHT22;10678;51.002;4.786;2022-08-25T16:05:01;34.20;53.80
21039;DHT22;10678;51.002;4.786;2022-08-25T16:07:27;34.00;54.50
21039;DHT22;10678;51.002;4.786;2022-08-25T16:09:57;33.80;55.40
21039;DHT22;10678;51.002;4.786;2022-08-25T16:12:24;33.70;55.60
21039;DHT22;10678;51.002;4.786;2022-08-25T16:14:50;33.40;58.20
21039;DHT22;10678;51.002;4.786;2022-08-25T16:17:17;33.10;60.10
21039;DHT22;10678;51.002;4.786;2022-08-25T16:19:43;32.90;62.00
21039;DHT22;10678;51.002;4.786;2022-08-25T16:22:09;32.70;63.60
21039;DHT22;10678;51.002;4.786;2022-08-25T16:24:37;32.50;65.10
21039;DHT22;10678;51.002;4.786;2022-08-25T16:27:04;32.40;64.70
21039;DHT22;10678;51.002;4.786;2022-08-25T16:29:41;32.30;66.20
21039;DHT22;10678;51.002;4.786;2022-08-25T16:32:10;32.00;67.10
21039;DHT22;10678;51.002;4.786;2022-08-25T16:34:36;31.80;68.60
21039;DHT22;10678;51.002;4.786;2022-08-25T16:37:02;31.70;70.20
21039;DHT22;10678;51.002;4.786;2022-08-25T16:39:28;31.60;71.30
21039;DHT22;10678;51.002;4.786;2022-08-25T16:41:54;31.30;73.60
21039;DHT22;10678;51.002;4.786;2022-08-25T16:44:20;31.20;74.60
21039;DHT22;10678;51.002;4.786;2022-08-25T16:46:46;31.20;75.80
21039;DHT22;10678;51.002;4.786;2022-08-25T16:49:13;31.00;77.90
21039;DHT22;10678;51.002;4.786;2022-08-25T16:51:39;30.90;79.30
21039;DHT22;10678;51.002;4.786;2022-08-25T16:54:10;30.80;80.10
21039;DHT22;10678;51.002;4.786;2022-08-25T16:56:55;30.80;80.90
21039;DHT22;10678;51.002;4.786;2022-08-25T16:59:25;30.70;80.30
21039;DHT22;10678;51.002;4.786;2022-08-25T17:01:51;30.60;79.90
21039;DHT22;10678;51.002;4.786;2022-08-25T17:04:17;30.50;80.60
21039;DHT22;10678;51.002;4.786;2022-08-25T17:06:43;30.30;81.40
21039;DHT22;10678;51.002;4.786;2022-08-25T17:09:11;30.10;82.70
21039;DHT22;10678;51.002;4.786;2022-08-25T17:11:45;30.20;83.30
21039;DHT22;10678;51.002;4.786;2022-08-25T17:14:14;30.20;84.10
21039;DHT22;10678;51.002;4.786;2022-08-25T17:16:40;29.90;85.50
21039;DHT22;10678;51.002;4.786;2022-08-25T17:19:07;30.00;86.10
21039;DHT22;10678;51.002;4.786;2022-08-25T17:21:36;29.60;87.60
21039;DHT22;10678;51.002;4.786;2022-08-25T17:24:03;29.60;88.70
21039;DHT22;10678;51.002;4.786;2022-08-25T17:26:29;29.60;90.20
21039;DHT22;10678;51.002;4.786;2022-08-25T17:28:56;29.50;91.10
21039;DHT22;10678;51.002;4.786;2022-08-25T17:31:22;29.40;92.00
21039;DHT22;10678;51.002;4.786;2022-08-25T17:33:48;29.40;92.50
21039;DHT22;10678;51.002;4.786;2022-08-25T17:36:13;29.30;93.10
21039;DHT22;10678;51.002;4.786;2022-08-25T17:38:40;29.30;93.90
21039;DHT22;10678;51.002;4.786;2022-08-25T17:41:07;29.20;94.70
21039;DHT22;10678;51.002;4.786;2022-08-25T17:43:35;29.30;95.30
21039;DHT22;10678;51.002;4.786;2022-08-25T17:46:01;29.20;96.30
21039;DHT22;10678;51.002;4.786;2022-08-25T17:48:28;29.10;96.90
21039;DHT22;10678;51.002;4.786;2022-08-25T17:50:54;29.10;97.80
21039;DHT22;10678;51.002;4.786;2022-08-25T17:53:20;29.00;98.50
21039;DHT22;10678;51.002;4.786;2022-08-25T17:55:46;29.00;99.20
21039;DHT22;10678;51.002;4.786;2022-08-25T17:58:14;29.00;99.60
21039;DHT22;10678;51.002;4.786;2022-08-25T18:00:41;28.70;99.90
21039;DHT22;10678;51.002;4.786;2022-08-25T18:03:07;28.70;99.90